Parker, Pennsylvania
Current Conditions -  °F | °C
As of 3:35 AM on Saturday 29 Nov 2014 (Local Time) from KFKL Reporting Station
Overcast Overcast  
Wind Chill: 17°   Ceiling: 6500
Heat Index: 25°   Visibility: 10mi
Dew Point: 18°   Wind: 7mph
Humidity: 74%   Direction: 150°SSE
Pressure: 30.14"   Gusts: NA
Location:  41.1°N, 79.68°W
Report Text: KFKL 290835Z AUTO 15006KT 10SM OVC065 M04/M08 A3014 RMK AO1
Loading
Personal Weather Stations






























Interactive Weather Map New forecast layout! Learn more

10-Day Weather Forecast

Advertisements
Track Severe Weather on mobile